Aviation Digital Data Service (ADDS)

Output produced by METARs form (0354 UTC 23 July 2014)
found at http://aviationweather.gov/adds/metars/
 
KRDU 230156Z 2302/2324 VRB04KT P6SM BKN060 
     FM230800 22003KT 4SM BR SCT005 
     TEMPO 2308/2312 2SM BR BKN005 
     FM231300 23005KT P6SM SCT015 
     FM231700 23007KT P6SM VCSH BKN040